sensor_id;sensor_type;location;lat;lon;timestamp;P1;durP1;ratioP1;P2;durP2;ratioP2
70444;SDS011;57902;49.638;11.070;2023-04-28T00:05:04;7.63;;;2.47;;
70444;SDS011;57902;49.638;11.070;2023-04-28T00:07:38;5.00;;;2.20;;
70444;SDS011;57902;49.638;11.070;2023-04-28T00:10:05;12.20;;;2.90;;
70444;SDS011;57902;49.638;11.070;2023-04-28T00:12:35;6.50;;;2.75;;
70444;SDS011;57902;49.638;11.070;2023-04-28T00:15:28;6.97;;;2.65;;
70444;SDS011;57902;49.638;11.070;2023-04-28T00:17:55;5.68;;;2.20;;
70444;SDS011;57902;49.638;11.070;2023-04-28T00:20:22;10.15;;;3.03;;
70444;SDS011;57902;49.638;11.070;2023-04-28T00:23:01;8.48;;;2.78;;
70444;SDS011;57902;49.638;11.070;2023-04-28T00:25:28;6.97;;;2.80;;
70444;SDS011;57902;49.638;11.070;2023-04-28T00:27:54;10.50;;;2.70;;
70444;SDS011;57902;49.638;11.070;2023-04-28T00:30:21;7.78;;;2.60;;
70444;SDS011;57902;49.638;11.070;2023-04-28T00:32:48;7.95;;;2.65;;
70444;SDS011;57902;49.638;11.070;2023-04-28T00:35:14;6.75;;;2.80;;
70444;SDS011;57902;49.638;11.070;2023-04-28T00:37:41;8.60;;;2.85;;
70444;SDS011;57902;49.638;11.070;2023-04-28T00:40:07;6.03;;;2.63;;
70444;SDS011;57902;49.638;11.070;2023-04-28T00:42:34;7.28;;;2.70;;
70444;SDS011;57902;49.638;11.070;2023-04-28T00:45:03;6.97;;;2.70;;
70444;SDS011;57902;49.638;11.070;2023-04-28T00:47:35;8.15;;;2.92;;
70444;SDS011;57902;49.638;11.070;2023-04-28T00:50:03;10.23;;;3.08;;
70444;SDS011;57902;49.638;11.070;2023-04-28T00:52:31;7.60;;;2.88;;
70444;SDS011;57902;49.638;11.070;2023-04-28T00:54:58;5.70;;;2.55;;
70444;SDS011;57902;49.638;11.070;2023-04-28T00:57:24;7.30;;;2.70;;
70444;SDS011;57902;49.638;11.070;2023-04-28T00:59:51;6.35;;;2.60;;
70444;SDS011;57902;49.638;11.070;2023-04-28T01:02:18;8.32;;;2.80;;
70444;SDS011;57902;49.638;11.070;2023-04-28T01:04:45;7.47;;;3.38;;
70444;SDS011;57902;49.638;11.070;2023-04-28T01:07:12;8.48;;;2.90;;
70444;SDS011;57902;49.638;11.070;2023-04-28T01:09:56;7.25;;;3.03;;
70444;SDS011;57902;49.638;11.070;2023-04-28T01:12:23;9.02;;;2.90;;
70444;SDS011;57902;49.638;11.070;2023-04-28T01:14:50;7.60;;;2.72;;
70444;SDS011;57902;49.638;11.070;2023-04-28T01:17:18;7.38;;;2.90;;
70444;SDS011;57902;49.638;11.070;2023-04-28T01:19:48;10.30;;;3.03;;
70444;SDS011;57902;49.638;11.070;2023-04-28T01:22:16;9.32;;;2.90;;
70444;SDS011;57902;49.638;11.070;2023-04-28T01:24:43;7.93;;;2.90;;
70444;SDS011;57902;49.638;11.070;2023-04-28T01:27:13;9.70;;;3.15;;
70444;SDS011;57902;49.638;11.070;2023-04-28T01:29:39;7.50;;;3.25;;
70444;SDS011;57902;49.638;11.070;2023-04-28T01:32:06;8.80;;;3.33;;
70444;SDS011;57902;49.638;11.070;2023-04-28T01:34:32;7.65;;;2.92;;
70444;SDS011;57902;49.638;11.070;2023-04-28T01:36:59;8.80;;;3.25;;
70444;SDS011;57902;49.638;11.070;2023-04-28T01:39:25;8.82;;;3.65;;
70444;SDS011;57902;49.638;11.070;2023-04-28T01:41:52;9.63;;;2.95;;
70444;SDS011;57902;49.638;11.070;2023-04-28T01:44:18;8.45;;;3.00;;
70444;SDS011;57902;49.638;11.070;2023-04-28T01:46:45;9.25;;;3.45;;
70444;SDS011;57902;49.638;11.070;2023-04-28T01:49:14;7.93;;;3.35;;
70444;SDS011;57902;49.638;11.070;2023-04-28T01:51:40;7.60;;;3.33;;
70444;SDS011;57902;49.638;11.070;2023-04-28T01:54:08;11.45;;;3.25;;
70444;SDS011;57902;49.638;11.070;2023-04-28T01:56:35;8.70;;;3.20;;
70444;SDS011;57902;49.638;11.070;2023-04-28T01:59:02;9.43;;;3.20;;
70444;SDS011;57902;49.638;11.070;2023-04-28T02:01:28;10.27;;;3.38;;
70444;SDS011;57902;49.638;11.070;2023-04-28T02:03:55;10.63;;;3.17;;
70444;SDS011;57902;49.638;11.070;2023-04-28T02:06:22;9.20;;;3.40;;
70444;SDS011;57902;49.638;11.070;2023-04-28T02:08:48;7.32;;;3.40;;
70444;SDS011;57902;49.638;11.070;2023-04-28T02:11:15;11.77;;;3.50;;
70444;SDS011;57902;49.638;11.070;2023-04-28T02:13:41;13.10;;;3.70;;
70444;SDS011;57902;49.638;11.070;2023-04-28T02:16:08;9.32;;;3.42;;
70444;SDS011;57902;49.638;11.070;2023-04-28T02:18:34;9.25;;;3.08;;
70444;SDS011;57902;49.638;11.070;2023-04-28T02:21:10;8.93;;;3.30;;
70444;SDS011;57902;49.638;11.070;2023-04-28T02:23:38;7.00;;;2.95;;
70444;SDS011;57902;49.638;11.070;2023-04-28T02:26:05;9.50;;;3.30;;
70444;SDS011;57902;49.638;11.070;2023-04-28T02:28:31;11.10;;;3.70;;
70444;SDS011;57902;49.638;11.070;2023-04-28T02:31:05;7.38;;;2.95;;
70444;SDS011;57902;49.638;11.070;2023-04-28T02:33:36;7.13;;;3.55;;
70444;SDS011;57902;49.638;11.070;2023-04-28T02:36:03;8.65;;;3.35;;
70444;SDS011;57902;49.638;11.070;2023-04-28T02:38:31;7.75;;;3.30;;
70444;SDS011;57902;49.638;11.070;2023-04-28T02:41:01;9.40;;;3.25;;
70444;SDS011;57902;49.638;11.070;2023-04-28T02:43:31;8.23;;;3.33;;
70444;SDS011;57902;49.638;11.070;2023-04-28T02:45:58;12.85;;;3.55;;
70444;SDS011;57902;49.638;11.070;2023-04-28T02:48:25;9.13;;;3.70;;
70444;SDS011;57902;49.638;11.070;2023-04-28T02:50:52;8.73;;;3.08;;
70444;SDS011;57902;49.638;11.070;2023-04-28T02:53:19;7.30;;;3.05;;
70444;SDS011;57902;49.638;11.070;2023-04-28T02:55:46;9.15;;;3.28;;
70444;SDS011;57902;49.638;11.070;2023-04-28T02:58:12;8.90;;;3.22;;
70444;SDS011;57902;49.638;11.070;2023-04-28T03:00:38;6.28;;;3.13;;
70444;SDS011;57902;49.638;11.070;2023-04-28T03:03:05;8.63;;;3.78;;
70444;SDS011;57902;49.638;11.070;2023-04-28T03:05:32;7.03;;;3.30;;
70444;SDS011;57902;49.638;11.070;2023-04-28T03:07:58;7.97;;;2.92;;
70444;SDS011;57902;49.638;11.070;2023-04-28T03:10:25;8.50;;;3.13;;
70444;SDS011;57902;49.638;11.070;2023-04-28T03:12:52;6.32;;;3.00;;
70444;SDS011;57902;49.638;11.070;2023-04-28T03:15:18;9.00;;;3.60;;
70444;SDS011;57902;49.638;11.070;2023-04-28T03:17:45;10.07;;;3.70;;
70444;SDS011;57902;49.638;11.070;2023-04-28T03:20:11;14.02;;;3.78;;
70444;SDS011;57902;49.638;11.070;2023-04-28T03:22:38;7.47;;;3.10;;
70444;SDS011;57902;49.638;11.070;2023-04-28T03:25:05;10.15;;;3.17;;
70444;SDS011;57902;49.638;11.070;2023-04-28T03:27:31;8.73;;;3.60;;
70444;SDS011;57902;49.638;11.070;2023-04-28T03:29:58;8.70;;;3.40;;
70444;SDS011;57902;49.638;11.070;2023-04-28T03:32:24;7.47;;;3.30;;
70444;SDS011;57902;49.638;11.070;2023-04-28T03:34:51;7.05;;;3.05;;
70444;SDS011;57902;49.638;11.070;2023-04-28T03:37:17;9.25;;;3.22;;
70444;SDS011;57902;49.638;11.070;2023-04-28T03:39:43;7.55;;;3.10;;
70444;SDS011;57902;49.638;11.070;2023-04-28T03:42:10;9.13;;;3.40;;
70444;SDS011;57902;49.638;11.070;2023-04-28T03:44:37;9.50;;;3.35;;
70444;SDS011;57902;49.638;11.070;2023-04-28T03:47:03;8.80;;;3.30;;
70444;SDS011;57902;49.638;11.070;2023-04-28T03:49:30;7.15;;;3.20;;
70444;SDS011;57902;49.638;11.070;2023-04-28T03:51:57;9.50;;;3.08;;
70444;SDS011;57902;49.638;11.070;2023-04-28T03:54:23;8.15;;;3.17;;
70444;SDS011;57902;49.638;11.070;2023-04-28T03:56:50;9.73;;;3.25;;
70444;SDS011;57902;49.638;11.070;2023-04-28T03:59:16;10.00;;;3.22;;
70444;SDS011;57902;49.638;11.070;2023-04-28T04:01:43;8.00;;;3.20;;
70444;SDS011;57902;49.638;11.070;2023-04-28T04:04:09;5.68;;;2.80;;
70444;SDS011;57902;49.638;11.070;2023-04-28T04:06:36;7.93;;;3.30;;
70444;SDS011;57902;49.638;11.070;2023-04-28T04:09:02;7.47;;;3.00;;
70444;SDS011;57902;49.638;11.070;2023-04-28T04:11:29;8.48;;;3.03;;
70444;SDS011;57902;49.638;11.070;2023-04-28T04:13:56;7.55;;;3.22;;
70444;SDS011;57902;49.638;11.070;2023-04-28T04:16:22;9.73;;;3.38;;
70444;SDS011;57902;49.638;11.070;2023-04-28T04:18:49;7.70;;;3.10;;
70444;SDS011;57902;49.638;11.070;2023-04-28T04:21:15;9.63;;;3.10;;
70444;SDS011;57902;49.638;11.070;2023-04-28T04:23:42;11.35;;;3.53;;
70444;SDS011;57902;49.638;11.070;2023-04-28T04:26:08;7.60;;;3.17;;
70444;SDS011;57902;49.638;11.070;2023-04-28T04:28:34;8.60;;;3.38;;
70444;SDS011;57902;49.638;11.070;2023-04-28T04:31:01;8.82;;;3.17;;
70444;SDS011;57902;49.638;11.070;2023-04-28T04:33:28;8.85;;;3.35;;
70444;SDS011;57902;49.638;11.070;2023-04-28T04:35:59;6.68;;;3.03;;
70444;SDS011;57902;49.638;11.070;2023-04-28T04:38:25;9.88;;;3.13;;
70444;SDS011;57902;49.638;11.070;2023-04-28T04:40:51;11.65;;;3.40;;
70444;SDS011;57902;49.638;11.070;2023-04-28T04:43:18;8.18;;;3.33;;
70444;SDS011;57902;49.638;11.070;2023-04-28T04:45:47;9.55;;;3.63;;
70444;SDS011;57902;49.638;11.070;2023-04-28T04:48:14;8.73;;;3.40;;
70444;SDS011;57902;49.638;11.070;2023-04-28T04:50:40;8.63;;;3.33;;
70444;SDS011;57902;49.638;11.070;2023-04-28T04:53:07;9.82;;;3.67;;
70444;SDS011;57902;49.638;11.070;2023-04-28T04:55:39;8.02;;;3.25;;
70444;SDS011;57902;49.638;11.070;2023-04-28T04:58:06;7.75;;;3.35;;
70444;SDS011;57902;49.638;11.070;2023-04-28T05:00:32;6.97;;;3.05;;
70444;SDS011;57902;49.638;11.070;2023-04-28T05:02:59;9.18;;;3.63;;
70444;SDS011;57902;49.638;11.070;2023-04-28T05:05:26;7.47;;;3.42;;
70444;SDS011;57902;49.638;11.070;2023-04-28T05:07:52;7.38;;;3.33;;
70444;SDS011;57902;49.638;11.070;2023-04-28T05:10:19;10.60;;;3.58;;
70444;SDS011;57902;49.638;11.070;2023-04-28T05:12:45;10.30;;;3.47;;
70444;SDS011;57902;49.638;11.070;2023-04-28T05:15:14;10.80;;;3.78;;
70444;SDS011;57902;49.638;11.070;2023-04-28T05:17:41;9.13;;;3.83;;
70444;SDS011;57902;49.638;11.070;2023-04-28T05:20:07;8.70;;;3.35;;
70444;SDS011;57902;49.638;11.070;2023-04-28T05:22:36;8.73;;;3.40;;
70444;SDS011;57902;49.638;11.070;2023-04-28T05:25:02;7.43;;;3.25;;
70444;SDS011;57902;49.638;11.070;2023-04-28T05:27:29;9.00;;;3.20;;
70444;SDS011;57902;49.638;11.070;2023-04-28T05:29:56;8.23;;;3.40;;
70444;SDS011;57902;49.638;11.070;2023-04-28T05:32:22;8.32;;;3.58;;
70444;SDS011;57902;49.638;11.070;2023-04-28T05:34:49;10.63;;;3.22;;
70444;SDS011;57902;49.638;11.070;2023-04-28T05:37:15;10.38;;;3.80;;
70444;SDS011;57902;49.638;11.070;2023-04-28T05:39:42;9.35;;;3.42;;
70444;SDS011;57902;49.638;11.070;2023-04-28T05:42:08;8.43;;;3.42;;
70444;SDS011;57902;49.638;11.070;2023-04-28T05:44:35;7.72;;;3.20;;
70444;SDS011;57902;49.638;11.070;2023-04-28T05:47:01;6.45;;;3.00;;
70444;SDS011;57902;49.638;11.070;2023-04-28T05:49:28;6.95;;;3.10;;
70444;SDS011;57902;49.638;11.070;2023-04-28T05:51:54;7.15;;;3.15;;
70444;SDS011;57902;49.638;11.070;2023-04-28T05:54:21;10.85;;;3.28;;
70444;SDS011;57902;49.638;11.070;2023-04-28T05:56:47;10.13;;;3.55;;
70444;SDS011;57902;49.638;11.070;2023-04-28T05:59:14;12.30;;;3.35;;
70444;SDS011;57902;49.638;11.070;2023-04-28T06:01:41;8.88;;;3.30;;
70444;SDS011;57902;49.638;11.070;2023-04-28T06:04:07;9.55;;;3.33;;
70444;SDS011;57902;49.638;11.070;2023-04-28T06:06:34;10.95;;;4.13;;
70444;SDS011;57902;49.638;11.070;2023-04-28T06:09:04;9.32;;;3.58;;
70444;SDS011;57902;49.638;11.070;2023-04-28T06:11:30;9.25;;;3.75;;
70444;SDS011;57902;49.638;11.070;2023-04-28T06:13:57;9.07;;;3.85;;
70444;SDS011;57902;49.638;11.070;2023-04-28T06:16:23;10.00;;;3.78;;
70444;SDS011;57902;49.638;11.070;2023-04-28T06:18:50;8.93;;;3.53;;
70444;SDS011;57902;49.638;11.070;2023-04-28T06:21:19;9.48;;;3.63;;
70444;SDS011;57902;49.638;11.070;2023-04-28T06:23:46;9.07;;;4.07;;
70444;SDS011;57902;49.638;11.070;2023-04-28T06:26:13;7.63;;;3.65;;
70444;SDS011;57902;49.638;11.070;2023-04-28T06:28:42;8.65;;;3.72;;
70444;SDS011;57902;49.638;11.070;2023-04-28T06:31:09;8.95;;;3.50;;
70444;SDS011;57902;49.638;11.070;2023-04-28T06:33:35;10.63;;;4.00;;
70444;SDS011;57902;49.638;11.070;2023-04-28T06:36:02;9.52;;;3.75;;
70444;SDS011;57902;49.638;11.070;2023-04-28T06:38:29;8.00;;;4.03;;
70444;SDS011;57902;49.638;11.070;2023-04-28T06:40:55;11.45;;;4.15;;
70444;SDS011;57902;49.638;11.070;2023-04-28T06:43:22;7.95;;;3.75;;
70444;SDS011;57902;49.638;11.070;2023-04-28T06:45:48;9.60;;;3.85;;
70444;SDS011;57902;49.638;11.070;2023-04-28T06:48:15;10.70;;;3.47;;
70444;SDS011;57902;49.638;11.070;2023-04-28T06:50:41;7.40;;;3.38;;
70444;SDS011;57902;49.638;11.070;2023-04-28T06:53:09;9.55;;;3.63;;
70444;SDS011;57902;49.638;11.070;2023-04-28T06:55:35;6.75;;;3.35;;
70444;SDS011;57902;49.638;11.070;2023-04-28T06:58:02;7.78;;;3.42;;
70444;SDS011;57902;49.638;11.070;2023-04-28T07:00:28;10.52;;;3.80;;
70444;SDS011;57902;49.638;11.070;2023-04-28T07:02:55;15.80;;;4.63;;
70444;SDS011;57902;49.638;11.070;2023-04-28T07:05:22;9.50;;;4.00;;
70444;SDS011;57902;49.638;11.070;2023-04-28T07:07:48;8.80;;;3.95;;
70444;SDS011;57902;49.638;11.070;2023-04-28T07:10:15;10.02;;;3.97;;
70444;SDS011;57902;49.638;11.070;2023-04-28T07:12:44;9.25;;;4.40;;
70444;SDS011;57902;49.638;11.070;2023-04-28T07:15:11;8.93;;;4.45;;
70444;SDS011;57902;49.638;11.070;2023-04-28T07:17:38;9.07;;;3.88;;
70444;SDS011;57902;49.638;11.070;2023-04-28T07:20:04;10.73;;;3.97;;
70444;SDS011;57902;49.638;11.070;2023-04-28T07:22:32;11.60;;;4.18;;
70444;SDS011;57902;49.638;11.070;2023-04-28T07:24:58;11.10;;;3.70;;
70444;SDS011;57902;49.638;11.070;2023-04-28T07:27:25;8.73;;;3.88;;
70444;SDS011;57902;49.638;11.070;2023-04-28T07:29:51;9.10;;;3.78;;
70444;SDS011;57902;49.638;11.070;2023-04-28T07:32:18;11.75;;;3.85;;
70444;SDS011;57902;49.638;11.070;2023-04-28T07:34:44;9.07;;;4.20;;
70444;SDS011;57902;49.638;11.070;2023-04-28T07:37:11;10.55;;;4.18;;
70444;SDS011;57902;49.638;11.070;2023-04-28T07:39:38;9.93;;;4.90;;
70444;SDS011;57902;49.638;11.070;2023-04-28T07:42:06;11.23;;;4.68;;
70444;SDS011;57902;49.638;11.070;2023-04-28T07:44:33;11.00;;;4.32;;
70444;SDS011;57902;49.638;11.070;2023-04-28T07:47:00;10.40;;;4.50;;
70444;SDS011;57902;49.638;11.070;2023-04-28T07:49:27;15.07;;;4.68;;
70444;SDS011;57902;49.638;11.070;2023-04-28T07:51:54;12.48;;;4.95;;
70444;SDS011;57902;49.638;11.070;2023-04-28T07:54:21;10.68;;;4.60;;
70444;SDS011;57902;49.638;11.070;2023-04-28T07:56:48;10.43;;;4.57;;
70444;SDS011;57902;49.638;11.070;2023-04-28T07:59:15;9.70;;;4.38;;
70444;SDS011;57902;49.638;11.070;2023-04-28T08:01:41;9.70;;;4.78;;
70444;SDS011;57902;49.638;11.070;2023-04-28T08:04:08;10.63;;;4.43;;
70444;SDS011;57902;49.638;11.070;2023-04-28T08:06:35;12.30;;;4.55;;
70444;SDS011;57902;49.638;11.070;2023-04-28T08:09:01;10.95;;;4.90;;
70444;SDS011;57902;49.638;11.070;2023-04-28T08:11:30;11.10;;;4.78;;
70444;SDS011;57902;49.638;11.070;2023-04-28T08:13:58;9.43;;;4.60;;
70444;SDS011;57902;49.638;11.070;2023-04-28T08:16:28;9.60;;;4.57;;
70444;SDS011;57902;49.638;11.070;2023-04-28T08:18:55;10.73;;;4.47;;
70444;SDS011;57902;49.638;11.070;2023-04-28T08:21:24;11.10;;;4.70;;
70444;SDS011;57902;49.638;11.070;2023-04-28T08:23:54;10.75;;;4.80;;
70444;SDS011;57902;49.638;11.070;2023-04-28T08:28:47;10.02;;;4.80;;
70444;SDS011;57902;49.638;11.070;2023-04-28T08:31:13;9.88;;;4.47;;
70444;SDS011;57902;49.638;11.070;2023-04-28T08:33:40;9.27;;;4.18;;
70444;SDS011;57902;49.638;11.070;2023-04-28T08:36:09;12.32;;;4.95;;
70444;SDS011;57902;49.638;11.070;2023-04-28T08:38:40;9.32;;;4.47;;
70444;SDS011;57902;49.638;11.070;2023-04-28T08:41:07;13.30;;;5.15;;
70444;SDS011;57902;49.638;11.070;2023-04-28T08:43:36;10.07;;;5.15;;
70444;SDS011;57902;49.638;11.070;2023-04-28T08:46:06;11.40;;;5.05;;
70444;SDS011;57902;49.638;11.070;2023-04-28T08:48:42;11.23;;;4.60;;
70444;SDS011;57902;49.638;11.070;2023-04-28T08:51:16;12.45;;;5.03;;
70444;SDS011;57902;49.638;11.070;2023-04-28T08:53:53;13.95;;;5.03;;
70444;SDS011;57902;49.638;11.070;2023-04-28T08:56:43;10.50;;;4.75;;
70444;SDS011;57902;49.638;11.070;2023-04-28T08:59:12;7.35;;;4.00;;
70444;SDS011;57902;49.638;11.070;2023-04-28T09:01:39;9.57;;;4.18;;
70444;SDS011;57902;49.638;11.070;2023-04-28T09:04:06;10.68;;;4.53;;
70444;SDS011;57902;49.638;11.070;2023-04-28T09:06:35;8.98;;;4.60;;
70444;SDS011;57902;49.638;11.070;2023-04-28T09:11:55;10.80;;;4.18;;
70444;SDS011;57902;49.638;11.070;2023-04-28T09:14:26;8.60;;;4.30;;
70444;SDS011;57902;49.638;11.070;2023-04-28T09:16:54;10.95;;;5.60;;
70444;SDS011;57902;49.638;11.070;2023-04-28T09:19:22;9.57;;;5.07;;
70444;SDS011;57902;49.638;11.070;2023-04-28T09:21:52;10.10;;;4.72;;
70444;SDS011;57902;49.638;11.070;2023-04-28T09:24:30;12.20;;;4.85;;
70444;SDS011;57902;49.638;11.070;2023-04-28T09:27:02;13.43;;;5.60;;
70444;SDS011;57902;49.638;11.070;2023-04-28T09:29:30;12.73;;;5.38;;
70444;SDS011;57902;49.638;11.070;2023-04-28T09:32:11;11.63;;;5.18;;
70444;SDS011;57902;49.638;11.070;2023-04-28T09:34:41;10.75;;;5.40;;
70444;SDS011;57902;49.638;11.070;2023-04-28T09:37:16;10.80;;;5.70;;
70444;SDS011;57902;49.638;11.070;2023-04-28T09:39:48;11.52;;;5.35;;
70444;SDS011;57902;49.638;11.070;2023-04-28T09:45:09;14.27;;;5.80;;
70444;SDS011;57902;49.638;11.070;2023-04-28T09:47:41;13.75;;;6.13;;
70444;SDS011;57902;49.638;11.070;2023-04-28T09:50:13;14.90;;;5.35;;
70444;SDS011;57902;49.638;11.070;2023-04-28T09:52:54;10.82;;;4.93;;
70444;SDS011;57902;49.638;11.070;2023-04-28T09:55:23;9.95;;;4.57;;
70444;SDS011;57902;49.638;11.070;2023-04-28T09:57:50;9.52;;;5.15;;
70444;SDS011;57902;49.638;11.070;2023-04-28T10:00:19;9.75;;;4.47;;
70444;SDS011;57902;49.638;11.070;2023-04-28T10:02:47;11.13;;;4.97;;
70444;SDS011;57902;49.638;11.070;2023-04-28T10:05:16;11.70;;;5.00;;
70444;SDS011;57902;49.638;11.070;2023-04-28T10:07:47;9.40;;;4.63;;
70444;SDS011;57902;49.638;11.070;2023-04-28T10:12:40;9.48;;;4.80;;
70444;SDS011;57902;49.638;11.070;2023-04-28T10:15:08;10.13;;;4.75;;
70444;SDS011;57902;49.638;11.070;2023-04-28T10:17:35;8.45;;;3.95;;
70444;SDS011;57902;49.638;11.070;2023-04-28T10:20:02;9.10;;;4.60;;
70444;SDS011;57902;49.638;11.070;2023-04-28T10:28:03;9.18;;;4.70;;
70444;SDS011;57902;49.638;11.070;2023-04-28T10:30:31;10.65;;;4.55;;
70444;SDS011;57902;49.638;11.070;2023-04-28T10:38:02;11.35;;;4.25;;
70444;SDS011;57902;49.638;11.070;2023-04-28T10:40:42;11.20;;;5.25;;
70444;SDS011;57902;49.638;11.070;2023-04-28T10:43:53;8.85;;;4.75;;
70444;SDS011;57902;49.638;11.070;2023-04-28T10:46:03;12.45;;;4.93;;
70444;SDS011;57902;49.638;11.070;2023-04-28T10:56:11;10.40;;;5.22;;
70444;SDS011;57902;49.638;11.070;2023-04-28T10:58:42;11.40;;;5.43;;
70444;SDS011;57902;49.638;11.070;2023-04-28T11:01:27;9.45;;;4.45;;
70444;SDS011;57902;49.638;11.070;2023-04-28T11:11:37;11.98;;;5.22;;
70444;SDS011;57902;49.638;11.070;2023-04-28T11:16:56;9.13;;;4.65;;
70444;SDS011;57902;49.638;11.070;2023-04-28T11:24:57;8.93;;;4.85;;
70444;SDS011;57902;49.638;11.070;2023-04-28T11:27:32;11.10;;;4.97;;
70444;SDS011;57902;49.638;11.070;2023-04-28T11:29:59;9.93;;;5.60;;
70444;SDS011;57902;49.638;11.070;2023-04-28T11:32:31;10.05;;;4.07;;
70444;SDS011;57902;49.638;11.070;2023-04-28T11:34:58;10.18;;;4.40;;
70444;SDS011;57902;49.638;11.070;2023-04-28T11:37:25;9.55;;;4.90;;
70444;SDS011;57902;49.638;11.070;2023-04-28T11:39:52;10.52;;;5.22;;
70444;SDS011;57902;49.638;11.070;2023-04-28T11:42:19;9.35;;;4.53;;
70444;SDS011;57902;49.638;11.070;2023-04-28T11:44:49;16.25;;;6.88;;
70444;SDS011;57902;49.638;11.070;2023-04-28T11:47:27;11.05;;;5.75;;
70444;SDS011;57902;49.638;11.070;2023-04-28T11:49:55;14.93;;;7.10;;
70444;SDS011;57902;49.638;11.070;2023-04-28T11:52:22;17.33;;;8.35;;
70444;SDS011;57902;49.638;11.070;2023-04-28T11:54:53;12.50;;;6.00;;
70444;SDS011;57902;49.638;11.070;2023-04-28T11:57:21;9.90;;;4.53;;
70444;SDS011;57902;49.638;11.070;2023-04-28T11:59:48;8.85;;;4.90;;
70444;SDS011;57902;49.638;11.070;2023-04-28T12:02:22;8.95;;;4.65;;
70444;SDS011;57902;49.638;11.070;2023-04-28T12:04:51;11.77;;;5.57;;
70444;SDS011;57902;49.638;11.070;2023-04-28T12:07:18;9.48;;;4.80;;
70444;SDS011;57902;49.638;11.070;2023-04-28T12:09:45;10.82;;;5.00;;
70444;SDS011;57902;49.638;11.070;2023-04-28T12:12:31;8.52;;;4.55;;
70444;SDS011;57902;49.638;11.070;2023-04-28T12:15:02;10.02;;;4.90;;
70444;SDS011;57902;49.638;11.070;2023-04-28T12:17:34;9.20;;;4.60;;
70444;SDS011;57902;49.638;11.070;2023-04-28T12:20:06;11.18;;;5.10;;
70444;SDS011;57902;49.638;11.070;2023-04-28T12:22:47;8.60;;;4.70;;
70444;SDS011;57902;49.638;11.070;2023-04-28T12:25:16;8.57;;;4.55;;
70444;SDS011;57902;49.638;11.070;2023-04-28T12:28:04;9.43;;;4.65;;
70444;SDS011;57902;49.638;11.070;2023-04-28T12:30:34;10.00;;;4.88;;
70444;SDS011;57902;49.638;11.070;2023-04-28T12:33:04;8.52;;;4.88;;
70444;SDS011;57902;49.638;11.070;2023-04-28T12:35:30;11.00;;;5.40;;
70444;SDS011;57902;49.638;11.070;2023-04-28T12:37:58;9.63;;;5.40;;
70444;SDS011;57902;49.638;11.070;2023-04-28T12:40:25;9.23;;;5.05;;
70444;SDS011;57902;49.638;11.070;2023-04-28T12:42:59;8.93;;;5.25;;
70444;SDS011;57902;49.638;11.070;2023-04-28T12:45:26;10.93;;;5.00;;
70444;SDS011;57902;49.638;11.070;2023-04-28T12:47:56;8.85;;;5.00;;
70444;SDS011;57902;49.638;11.070;2023-04-28T12:50:22;9.18;;;5.40;;
70444;SDS011;57902;49.638;11.070;2023-04-28T12:52:50;9.27;;;5.32;;
70444;SDS011;57902;49.638;11.070;2023-04-28T12:55:17;10.77;;;5.07;;
70444;SDS011;57902;49.638;11.070;2023-04-28T12:57:43;10.68;;;5.30;;
70444;SDS011;57902;49.638;11.070;2023-04-28T13:00:10;9.10;;;4.88;;
70444;SDS011;57902;49.638;11.070;2023-04-28T13:02:39;9.30;;;5.18;;
70444;SDS011;57902;49.638;11.070;2023-04-28T13:05:06;10.48;;;5.20;;
70444;SDS011;57902;49.638;11.070;2023-04-28T13:07:34;10.05;;;5.30;;
70444;SDS011;57902;49.638;11.070;2023-04-28T13:10:00;10.35;;;5.78;;
70444;SDS011;57902;49.638;11.070;2023-04-28T13:12:27;8.85;;;5.00;;
70444;SDS011;57902;49.638;11.070;2023-04-28T13:14:53;9.50;;;5.20;;
70444;SDS011;57902;49.638;11.070;2023-04-28T13:17:20;9.90;;;4.90;;
70444;SDS011;57902;49.638;11.070;2023-04-28T13:19:46;9.98;;;5.28;;
70444;SDS011;57902;49.638;11.070;2023-04-28T13:22:13;9.80;;;5.13;;
70444;SDS011;57902;49.638;11.070;2023-04-28T13:24:40;8.95;;;5.30;;
70444;SDS011;57902;49.638;11.070;2023-04-28T13:27:07;9.25;;;4.95;;
70444;SDS011;57902;49.638;11.070;2023-04-28T13:29:35;12.68;;;6.40;;
70444;SDS011;57902;49.638;11.070;2023-04-28T13:32:02;13.27;;;6.32;;
70444;SDS011;57902;49.638;11.070;2023-04-28T13:34:30;12.93;;;5.53;;
70444;SDS011;57902;49.638;11.070;2023-04-28T13:36:57;8.95;;;5.00;;
70444;SDS011;57902;49.638;11.070;2023-04-28T13:39:24;9.32;;;5.40;;
70444;SDS011;57902;49.638;11.070;2023-04-28T13:41:50;9.73;;;5.10;;
70444;SDS011;57902;49.638;11.070;2023-04-28T13:44:17;9.13;;;4.95;;
70444;SDS011;57902;49.638;11.070;2023-04-28T13:46:43;10.15;;;4.93;;
70444;SDS011;57902;49.638;11.070;2023-04-28T13:49:10;8.98;;;5.25;;
70444;SDS011;57902;49.638;11.070;2023-04-28T13:51:39;9.82;;;5.28;;
70444;SDS011;57902;49.638;11.070;2023-04-28T13:54:05;8.32;;;5.10;;
70444;SDS011;57902;49.638;11.070;2023-04-28T13:56:36;9.05;;;5.03;;
70444;SDS011;57902;49.638;11.070;2023-04-28T13:59:03;11.07;;;5.30;;
70444;SDS011;57902;49.638;11.070;2023-04-28T14:01:29;8.52;;;5.25;;
70444;SDS011;57902;49.638;11.070;2023-04-28T14:03:56;9.63;;;5.53;;
70444;SDS011;57902;49.638;11.070;2023-04-28T14:06:23;10.45;;;5.95;;
70444;SDS011;57902;49.638;11.070;2023-04-28T14:08:49;14.85;;;7.15;;
70444;SDS011;57902;49.638;11.070;2023-04-28T14:11:16;12.70;;;6.63;;
70444;SDS011;57902;49.638;11.070;2023-04-28T14:13:42;12.90;;;6.38;;
70444;SDS011;57902;49.638;11.070;2023-04-28T14:16:09;13.30;;;7.13;;
70444;SDS011;57902;49.638;11.070;2023-04-28T14:18:35;17.92;;;8.70;;
70444;SDS011;57902;49.638;11.070;2023-04-28T14:21:02;23.20;;;10.77;;
70444;SDS011;57902;49.638;11.070;2023-04-28T14:23:33;14.82;;;6.82;;
70444;SDS011;57902;49.638;11.070;2023-04-28T14:26:00;9.70;;;5.38;;
70444;SDS011;57902;49.638;11.070;2023-04-28T14:28:27;11.20;;;5.22;;
70444;SDS011;57902;49.638;11.070;2023-04-28T14:30:53;11.35;;;4.70;;
70444;SDS011;57902;49.638;11.070;2023-04-28T14:33:20;9.27;;;5.20;;
70444;SDS011;57902;49.638;11.070;2023-04-28T14:35:46;9.43;;;5.40;;
70444;SDS011;57902;49.638;11.070;2023-04-28T14:38:13;8.85;;;4.90;;
70444;SDS011;57902;49.638;11.070;2023-04-28T14:40:39;10.15;;;4.63;;
70444;SDS011;57902;49.638;11.070;2023-04-28T14:45:34;8.23;;;4.40;;
70444;SDS011;57902;49.638;11.070;2023-04-28T14:48:02;8.55;;;4.43;;
70444;SDS011;57902;49.638;11.070;2023-04-28T14:50:29;8.05;;;4.10;;
70444;SDS011;57902;49.638;11.070;2023-04-28T14:52:55;8.98;;;4.20;;
70444;SDS011;57902;49.638;11.070;2023-04-28T14:55:22;7.93;;;4.22;;
70444;SDS011;57902;49.638;11.070;2023-04-28T14:57:48;9.13;;;4.40;;
70444;SDS011;57902;49.638;11.070;2023-04-28T15:00:15;9.05;;;3.90;;
70444;SDS011;57902;49.638;11.070;2023-04-28T15:02:42;8.70;;;4.18;;
70444;SDS011;57902;49.638;11.070;2023-04-28T15:05:09;10.73;;;4.85;;
70444;SDS011;57902;49.638;11.070;2023-04-28T15:07:39;8.30;;;4.35;;
70444;SDS011;57902;49.638;11.070;2023-04-28T15:10:06;11.65;;;4.43;;
70444;SDS011;57902;49.638;11.070;2023-04-28T15:12:33;12.05;;;4.53;;
70444;SDS011;57902;49.638;11.070;2023-04-28T15:14:59;8.73;;;3.92;;
70444;SDS011;57902;49.638;11.070;2023-04-28T15:17:26;8.80;;;4.13;;
70444;SDS011;57902;49.638;11.070;2023-04-28T15:19:52;10.32;;;4.18;;
70444;SDS011;57902;49.638;11.070;2023-04-28T15:22:19;11.35;;;3.95;;
70444;SDS011;57902;49.638;11.070;2023-04-28T15:24:46;10.27;;;4.05;;
70444;SDS011;57902;49.638;11.070;2023-04-28T15:27:13;8.60;;;4.10;;